Sabiti — H3SE — position and weather

sailwx.info

Track history (hours):
 
Tides and Currents Weather Stations Pressure Air Temp Water Temp Dewpoint Dewpoint Depression Visibility Wind Speed Wind Dir Waves Ship Positions

Sabiti

Last reported at 2018-Feb-22 18:51 UTC. Time now 2018-Feb-25 08:21 UTC.
Position N 24°17' E 122°30'.

Length 274 m; draft 9 m.

Type: Tanker. MMSI: 356868000.

Date/timePositionNaut miles runAvg speedWind from/ knotsBaromVisibWave heightAir tempDewpointWater temp
2018-Feb-22 18:51N 24°17' E 122°30'411.0
2018-Feb-22 18:30N 24°21' E 122°31'510.9
2018-Feb-22 18:00N 24°26' E 122°33'611.3
2018-Feb-22 17:30N 24°31' E 122°35'611.6
2018-Feb-22 17:01N 24°36' E 122°37'611.4
2018-Feb-22 16:30N 24°42' E 122°39'  
2018-Feb-15 05:37N 24°58' E 122°45'113.6
2018-Feb-15 05:30N 24°57' E 122°45'713.6
2018-Feb-15 05:00N 24°50' E 122°42'713.2
2018-Feb-15 04:30N 24°44' E 122°40'713.6
2018-Feb-15 04:00N 24°37' E 122°37'713.4
2018-Feb-15 03:28N 24°31' E 122°35'613.3
2018-Feb-15 03:00N 24°25' E 122°33'713.5
2018-Feb-15 02:30N 24°18' E 122°30'713.7
2018-Feb-15 02:00N 24°12' E 122°28'714.5
2018-Feb-15 01:30N 24°05' E 122°26'  
Track history (hours):
 
Tides and Currents Weather Stations Pressure Air Temp Water Temp Dewpoint Dewpoint Depression Visibility Wind Speed Wind Dir Waves Ship Positions

Sabiti

Last reported at 2018-Feb-22 18:51 UTC. Time now 2018-Feb-25 08:21 UTC.
Position N 24°17' E 122°30'.

Length 274 m; draft 9 m.

Type: Tanker. MMSI: 356868000.

Date/timePositionNaut miles runAvg speedWind from/ knotsBaromVisibWave heightAir tempDewpointWater temp
2018-Feb-22 18:51N 24°17' E 122°30'411.0
2018-Feb-22 18:30N 24°21' E 122°31'510.9
2018-Feb-22 18:00N 24°26' E 122°33'611.3
2018-Feb-22 17:30N 24°31' E 122°35'611.6
2018-Feb-22 17:01N 24°36' E 122°37'611.4
2018-Feb-22 16:30N 24°42' E 122°39'  
2018-Feb-15 05:37N 24°58' E 122°45'113.6
2018-Feb-15 05:30N 24°57' E 122°45'713.6
2018-Feb-15 05:00N 24°50' E 122°42'713.2
2018-Feb-15 04:30N 24°44' E 122°40'713.6
2018-Feb-15 04:00N 24°37' E 122°37'713.4
2018-Feb-15 03:28N 24°31' E 122°35'613.3
2018-Feb-15 03:00N 24°25' E 122°33'713.5
2018-Feb-15 02:30N 24°18' E 122°30'713.7
2018-Feb-15 02:00N 24°12' E 122°28'714.5
2018-Feb-15 01:30N 24°05' E 122°26'  

Dump ship's entire track history